Terminal Aerodrome Forecast
Issued by NWS Jacksonville, FL

Home | Current Version | Previous Version | Text Only | Print | Product List | Glossary On
Versions: 1 2 3 4 5 6 7 8 9 10 11 12 13 14 15 16
000
FTUS42 KJAX 282300
TAFGNV
TAF
KGNV 282338Z 2900/2924 VRB03KT P6SM SKC
     FM291600 13007KT P6SM SCT040 SCT070
     FM291900 16008KT P6SM VCTS BKN030CB BKN070 BKN120=

USA.gov is the U.S. government's official web portal to all federal, state and local government web resources and services.